sensor_id;sensor_type;location;lat;lon;timestamp;P1;durP1;ratioP1;P2;durP2;ratioP2
21122;SDS011;10719;48.130;11.630;2023-07-09T00:00:16;12.25;;;4.97;;
21122;SDS011;10719;48.130;11.630;2023-07-09T00:02:44;10.38;;;3.95;;
21122;SDS011;10719;48.130;11.630;2023-07-09T00:05:14;13.25;;;4.88;;
21122;SDS011;10719;48.130;11.630;2023-07-09T00:07:42;11.65;;;4.20;;
21122;SDS011;10719;48.130;11.630;2023-07-09T00:10:16;12.27;;;4.60;;
21122;SDS011;10719;48.130;11.630;2023-07-09T00:12:44;11.70;;;4.20;;
21122;SDS011;10719;48.130;11.630;2023-07-09T00:15:13;10.20;;;4.38;;
21122;SDS011;10719;48.130;11.630;2023-07-09T00:17:41;12.50;;;4.38;;
21122;SDS011;10719;48.130;11.630;2023-07-09T00:20:10;12.77;;;4.72;;
21122;SDS011;10719;48.130;11.630;2023-07-09T00:22:39;11.07;;;4.35;;
21122;SDS011;10719;48.130;11.630;2023-07-09T00:25:05;13.55;;;4.63;;
21122;SDS011;10719;48.130;11.630;2023-07-09T00:27:33;18.55;;;5.03;;
21122;SDS011;10719;48.130;11.630;2023-07-09T00:29:58;11.85;;;4.38;;
21122;SDS011;10719;48.130;11.630;2023-07-09T00:32:24;10.45;;;4.38;;
21122;SDS011;10719;48.130;11.630;2023-07-09T00:34:53;11.50;;;4.32;;
21122;SDS011;10719;48.130;11.630;2023-07-09T00:37:21;12.07;;;4.00;;
21122;SDS011;10719;48.130;11.630;2023-07-09T00:39:50;15.63;;;5.25;;
21122;SDS011;10719;48.130;11.630;2023-07-09T00:42:18;11.13;;;4.60;;
21122;SDS011;10719;48.130;11.630;2023-07-09T00:44:46;12.25;;;4.90;;
21122;SDS011;10719;48.130;11.630;2023-07-09T00:50:15;12.60;;;4.32;;
21122;SDS011;10719;48.130;11.630;2023-07-09T00:52:54;11.13;;;4.30;;
21122;SDS011;10719;48.130;11.630;2023-07-09T00:55:28;13.23;;;4.07;;
21122;SDS011;10719;48.130;11.630;2023-07-09T00:57:59;11.18;;;4.15;;
21122;SDS011;10719;48.130;11.630;2023-07-09T01:00:30;11.00;;;4.28;;
21122;SDS011;10719;48.130;11.630;2023-07-09T01:03:07;11.70;;;4.38;;
21122;SDS011;10719;48.130;11.630;2023-07-09T01:05:35;9.60;;;3.95;;
21122;SDS011;10719;48.130;11.630;2023-07-09T01:08:02;14.60;;;4.25;;
21122;SDS011;10719;48.130;11.630;2023-07-09T01:10:28;14.77;;;5.30;;
21122;SDS011;10719;48.130;11.630;2023-07-09T01:12:53;13.23;;;4.65;;
21122;SDS011;10719;48.130;11.630;2023-07-09T01:15:19;12.70;;;3.83;;
21122;SDS011;10719;48.130;11.630;2023-07-09T01:17:44;12.98;;;4.47;;
21122;SDS011;10719;48.130;11.630;2023-07-09T01:20:14;13.50;;;5.30;;
21122;SDS011;10719;48.130;11.630;2023-07-09T01:22:42;10.25;;;3.78;;
21122;SDS011;10719;48.130;11.630;2023-07-09T01:25:07;11.13;;;4.28;;
21122;SDS011;10719;48.130;11.630;2023-07-09T01:27:42;12.88;;;4.63;;
21122;SDS011;10719;48.130;11.630;2023-07-09T01:30:15;9.98;;;3.58;;
21122;SDS011;10719;48.130;11.630;2023-07-09T01:32:55;12.38;;;4.60;;
21122;SDS011;10719;48.130;11.630;2023-07-09T01:35:22;11.52;;;4.30;;
21122;SDS011;10719;48.130;11.630;2023-07-09T01:37:49;12.70;;;4.75;;
21122;SDS011;10719;48.130;11.630;2023-07-09T01:40:17;12.73;;;4.35;;
21122;SDS011;10719;48.130;11.630;2023-07-09T01:42:43;9.90;;;4.28;;
21122;SDS011;10719;48.130;11.630;2023-07-09T01:45:09;10.10;;;3.75;;
21122;SDS011;10719;48.130;11.630;2023-07-09T01:47:35;11.02;;;3.80;;
21122;SDS011;10719;48.130;11.630;2023-07-09T01:50:02;14.52;;;4.43;;
21122;SDS011;10719;48.130;11.630;2023-07-09T01:52:29;11.35;;;3.55;;
21122;SDS011;10719;48.130;11.630;2023-07-09T01:54:56;12.27;;;4.22;;
21122;SDS011;10719;48.130;11.630;2023-07-09T01:57:23;13.50;;;4.75;;
21122;SDS011;10719;48.130;11.630;2023-07-09T01:59:53;12.13;;;3.92;;
21122;SDS011;10719;48.130;11.630;2023-07-09T02:02:20;12.55;;;4.25;;
21122;SDS011;10719;48.130;11.630;2023-07-09T02:04:50;10.32;;;4.13;;
21122;SDS011;10719;48.130;11.630;2023-07-09T02:07:18;11.23;;;4.32;;
21122;SDS011;10719;48.130;11.630;2023-07-09T02:09:44;10.88;;;4.28;;
21122;SDS011;10719;48.130;11.630;2023-07-09T02:12:11;11.52;;;4.45;;
21122;SDS011;10719;48.130;11.630;2023-07-09T02:14:38;11.48;;;4.32;;
21122;SDS011;10719;48.130;11.630;2023-07-09T02:17:04;11.40;;;4.32;;
21122;SDS011;10719;48.130;11.630;2023-07-09T02:19:30;11.10;;;4.07;;
21122;SDS011;10719;48.130;11.630;2023-07-09T02:21:56;11.68;;;4.35;;
21122;SDS011;10719;48.130;11.630;2023-07-09T02:24:23;14.27;;;4.55;;
21122;SDS011;10719;48.130;11.630;2023-07-09T02:26:57;14.30;;;4.03;;
21122;SDS011;10719;48.130;11.630;2023-07-09T02:29:23;11.02;;;3.83;;
21122;SDS011;10719;48.130;11.630;2023-07-09T02:31:50;11.75;;;4.13;;
21122;SDS011;10719;48.130;11.630;2023-07-09T02:34:17;11.18;;;4.00;;
21122;SDS011;10719;48.130;11.630;2023-07-09T02:36:43;10.80;;;3.92;;
21122;SDS011;10719;48.130;11.630;2023-07-09T02:39:10;10.43;;;3.80;;
21122;SDS011;10719;48.130;11.630;2023-07-09T02:41:37;11.88;;;4.07;;
21122;SDS011;10719;48.130;11.630;2023-07-09T02:44:04;10.80;;;4.25;;
21122;SDS011;10719;48.130;11.630;2023-07-09T02:46:30;10.63;;;4.25;;
21122;SDS011;10719;48.130;11.630;2023-07-09T02:48:56;10.23;;;4.15;;
21122;SDS011;10719;48.130;11.630;2023-07-09T02:51:22;8.98;;;3.78;;
21122;SDS011;10719;48.130;11.630;2023-07-09T02:53:49;9.93;;;3.85;;
21122;SDS011;10719;48.130;11.630;2023-07-09T02:56:14;10.75;;;4.40;;
21122;SDS011;10719;48.130;11.630;2023-07-09T02:58:40;10.10;;;3.95;;
21122;SDS011;10719;48.130;11.630;2023-07-09T03:01:06;11.00;;;4.25;;
21122;SDS011;10719;48.130;11.630;2023-07-09T03:03:31;15.80;;;4.50;;
21122;SDS011;10719;48.130;11.630;2023-07-09T03:05:57;10.45;;;3.97;;
21122;SDS011;10719;48.130;11.630;2023-07-09T03:08:22;11.73;;;3.85;;
21122;SDS011;10719;48.130;11.630;2023-07-09T03:10:48;12.13;;;4.77;;
21122;SDS011;10719;48.130;11.630;2023-07-09T03:13:14;13.73;;;4.90;;
21122;SDS011;10719;48.130;11.630;2023-07-09T03:15:39;10.95;;;3.95;;
21122;SDS011;10719;48.130;11.630;2023-07-09T03:18:05;9.48;;;3.60;;
21122;SDS011;10719;48.130;11.630;2023-07-09T03:20:30;9.88;;;3.85;;
21122;SDS011;10719;48.130;11.630;2023-07-09T03:22:57;8.77;;;3.38;;
21122;SDS011;10719;48.130;11.630;2023-07-09T03:25:22;10.00;;;3.78;;
21122;SDS011;10719;48.130;11.630;2023-07-09T03:27:48;9.43;;;3.55;;
21122;SDS011;10719;48.130;11.630;2023-07-09T03:30:14;8.95;;;3.42;;
21122;SDS011;10719;48.130;11.630;2023-07-09T03:32:39;11.63;;;4.20;;
21122;SDS011;10719;48.130;11.630;2023-07-09T03:35:05;10.48;;;3.60;;
21122;SDS011;10719;48.130;11.630;2023-07-09T03:37:31;9.13;;;3.72;;
21122;SDS011;10719;48.130;11.630;2023-07-09T03:39:57;10.00;;;4.15;;
21122;SDS011;10719;48.130;11.630;2023-07-09T03:42:22;9.82;;;3.60;;
21122;SDS011;10719;48.130;11.630;2023-07-09T03:44:48;9.98;;;3.88;;
21122;SDS011;10719;48.130;11.630;2023-07-09T03:47:13;9.88;;;3.65;;
21122;SDS011;10719;48.130;11.630;2023-07-09T03:49:39;12.27;;;3.47;;
21122;SDS011;10719;48.130;11.630;2023-07-09T03:52:06;9.73;;;3.67;;
21122;SDS011;10719;48.130;11.630;2023-07-09T03:54:32;9.65;;;3.78;;
21122;SDS011;10719;48.130;11.630;2023-07-09T03:56:58;10.23;;;3.78;;
21122;SDS011;10719;48.130;11.630;2023-07-09T03:59:23;10.63;;;3.67;;
21122;SDS011;10719;48.130;11.630;2023-07-09T04:01:49;9.60;;;3.70;;
21122;SDS011;10719;48.130;11.630;2023-07-09T04:04:15;10.60;;;3.78;;
21122;SDS011;10719;48.130;11.630;2023-07-09T04:06:45;7.88;;;3.38;;
21122;SDS011;10719;48.130;11.630;2023-07-09T04:09:11;13.68;;;4.00;;
21122;SDS011;10719;48.130;11.630;2023-07-09T04:11:36;8.75;;;3.65;;
21122;SDS011;10719;48.130;11.630;2023-07-09T04:14:02;10.13;;;3.33;;
21122;SDS011;10719;48.130;11.630;2023-07-09T04:16:27;12.50;;;3.70;;
21122;SDS011;10719;48.130;11.630;2023-07-09T04:18:53;11.10;;;3.67;;
21122;SDS011;10719;48.130;11.630;2023-07-09T04:21:19;10.15;;;3.60;;
21122;SDS011;10719;48.130;11.630;2023-07-09T04:23:44;8.80;;;3.30;;
21122;SDS011;10719;48.130;11.630;2023-07-09T04:26:13;11.55;;;4.15;;
21122;SDS011;10719;48.130;11.630;2023-07-09T04:28:39;10.82;;;3.67;;
21122;SDS011;10719;48.130;11.630;2023-07-09T04:31:04;9.38;;;3.70;;
21122;SDS011;10719;48.130;11.630;2023-07-09T04:33:30;8.98;;;3.67;;
21122;SDS011;10719;48.130;11.630;2023-07-09T04:35:56;10.88;;;3.95;;
21122;SDS011;10719;48.130;11.630;2023-07-09T04:38:22;8.25;;;3.38;;
21122;SDS011;10719;48.130;11.630;2023-07-09T04:40:48;10.30;;;3.45;;
21122;SDS011;10719;48.130;11.630;2023-07-09T04:43:14;7.55;;;3.35;;
21122;SDS011;10719;48.130;11.630;2023-07-09T04:45:39;9.80;;;3.80;;
21122;SDS011;10719;48.130;11.630;2023-07-09T04:48:05;9.35;;;3.55;;
21122;SDS011;10719;48.130;11.630;2023-07-09T04:50:31;9.90;;;3.95;;
21122;SDS011;10719;48.130;11.630;2023-07-09T04:52:58;7.55;;;3.40;;
21122;SDS011;10719;48.130;11.630;2023-07-09T04:55:24;8.43;;;3.53;;
21122;SDS011;10719;48.130;11.630;2023-07-09T04:57:51;8.60;;;3.30;;
21122;SDS011;10719;48.130;11.630;2023-07-09T05:00:17;8.13;;;3.30;;
21122;SDS011;10719;48.130;11.630;2023-07-09T05:02:43;10.07;;;3.45;;
21122;SDS011;10719;48.130;11.630;2023-07-09T05:05:08;8.25;;;3.53;;
21122;SDS011;10719;48.130;11.630;2023-07-09T05:07:34;10.93;;;3.70;;
21122;SDS011;10719;48.130;11.630;2023-07-09T05:10:00;10.15;;;3.67;;
21122;SDS011;10719;48.130;11.630;2023-07-09T05:12:26;7.35;;;3.35;;
21122;SDS011;10719;48.130;11.630;2023-07-09T05:14:52;11.40;;;3.80;;
21122;SDS011;10719;48.130;11.630;2023-07-09T05:17:19;11.45;;;3.80;;
21122;SDS011;10719;48.130;11.630;2023-07-09T05:19:44;7.47;;;3.28;;
21122;SDS011;10719;48.130;11.630;2023-07-09T05:22:10;10.40;;;3.90;;
21122;SDS011;10719;48.130;11.630;2023-07-09T05:24:36;7.45;;;3.08;;
21122;SDS011;10719;48.130;11.630;2023-07-09T05:27:01;10.63;;;3.25;;
21122;SDS011;10719;48.130;11.630;2023-07-09T05:29:27;8.32;;;3.17;;
21122;SDS011;10719;48.130;11.630;2023-07-09T05:31:53;9.85;;;3.72;;
21122;SDS011;10719;48.130;11.630;2023-07-09T05:34:18;9.40;;;3.08;;
21122;SDS011;10719;48.130;11.630;2023-07-09T05:36:44;7.20;;;3.22;;
21122;SDS011;10719;48.130;11.630;2023-07-09T05:39:10;10.65;;;3.80;;
21122;SDS011;10719;48.130;11.630;2023-07-09T05:41:35;31.70;;;9.52;;
21122;SDS011;10719;48.130;11.630;2023-07-09T05:44:01;12.30;;;4.10;;
21122;SDS011;10719;48.130;11.630;2023-07-09T05:46:27;10.32;;;3.58;;
21122;SDS011;10719;48.130;11.630;2023-07-09T05:48:52;9.18;;;3.60;;
21122;SDS011;10719;48.130;11.630;2023-07-09T05:51:18;10.30;;;3.15;;
21122;SDS011;10719;48.130;11.630;2023-07-09T05:53:46;7.05;;;3.03;;
21122;SDS011;10719;48.130;11.630;2023-07-09T05:56:11;11.85;;;3.47;;
21122;SDS011;10719;48.130;11.630;2023-07-09T05:58:37;6.90;;;2.95;;
21122;SDS011;10719;48.130;11.630;2023-07-09T06:01:03;12.50;;;3.40;;
21122;SDS011;10719;48.130;11.630;2023-07-09T06:03:29;10.27;;;3.28;;
21122;SDS011;10719;48.130;11.630;2023-07-09T06:05:55;7.03;;;2.72;;
21122;SDS011;10719;48.130;11.630;2023-07-09T06:08:22;11.68;;;3.58;;
21122;SDS011;10719;48.130;11.630;2023-07-09T06:10:54;10.55;;;3.05;;
21122;SDS011;10719;48.130;11.630;2023-07-09T06:13:22;10.07;;;3.20;;
21122;SDS011;10719;48.130;11.630;2023-07-09T06:15:48;6.72;;;2.78;;
21122;SDS011;10719;48.130;11.630;2023-07-09T06:18:15;7.90;;;3.10;;
21122;SDS011;10719;48.130;11.630;2023-07-09T06:20:41;7.53;;;2.95;;
21122;SDS011;10719;48.130;11.630;2023-07-09T06:23:10;7.60;;;2.47;;
21122;SDS011;10719;48.130;11.630;2023-07-09T06:25:37;6.32;;;2.63;;
21122;SDS011;10719;48.130;11.630;2023-07-09T06:28:03;9.93;;;3.15;;
21122;SDS011;10719;48.130;11.630;2023-07-09T06:30:29;10.38;;;3.10;;
21122;SDS011;10719;48.130;11.630;2023-07-09T06:32:54;8.48;;;2.80;;
21122;SDS011;10719;48.130;11.630;2023-07-09T06:35:20;6.10;;;2.65;;
21122;SDS011;10719;48.130;11.630;2023-07-09T06:37:46;6.88;;;2.97;;
21122;SDS011;10719;48.130;11.630;2023-07-09T06:40:11;7.25;;;3.05;;
21122;SDS011;10719;48.130;11.630;2023-07-09T06:42:37;8.88;;;2.55;;
21122;SDS011;10719;48.130;11.630;2023-07-09T06:45:03;6.90;;;2.20;;
21122;SDS011;10719;48.130;11.630;2023-07-09T06:47:29;8.38;;;2.55;;
21122;SDS011;10719;48.130;11.630;2023-07-09T06:49:55;9.88;;;2.60;;
21122;SDS011;10719;48.130;11.630;2023-07-09T06:52:21;6.68;;;2.42;;
21122;SDS011;10719;48.130;11.630;2023-07-09T06:54:46;6.63;;;2.47;;
21122;SDS011;10719;48.130;11.630;2023-07-09T06:57:12;6.47;;;2.40;;
21122;SDS011;10719;48.130;11.630;2023-07-09T06:59:37;20.98;;;2.88;;
21122;SDS011;10719;48.130;11.630;2023-07-09T07:02:03;6.38;;;2.45;;
21122;SDS011;10719;48.130;11.630;2023-07-09T07:04:29;9.25;;;3.05;;
21122;SDS011;10719;48.130;11.630;2023-07-09T07:06:54;9.32;;;3.20;;
21122;SDS011;10719;48.130;11.630;2023-07-09T07:09:21;4.68;;;2.47;;
21122;SDS011;10719;48.130;11.630;2023-07-09T07:11:49;7.95;;;2.80;;
21122;SDS011;10719;48.130;11.630;2023-07-09T07:14:15;7.35;;;2.70;;
21122;SDS011;10719;48.130;11.630;2023-07-09T07:16:41;7.53;;;2.40;;
21122;SDS011;10719;48.130;11.630;2023-07-09T07:19:06;7.10;;;2.75;;
21122;SDS011;10719;48.130;11.630;2023-07-09T07:21:32;9.20;;;2.75;;
21122;SDS011;10719;48.130;11.630;2023-07-09T07:23:57;5.93;;;2.40;;
21122;SDS011;10719;48.130;11.630;2023-07-09T07:26:23;9.48;;;3.13;;
21122;SDS011;10719;48.130;11.630;2023-07-09T07:28:49;6.97;;;2.60;;
21122;SDS011;10719;48.130;11.630;2023-07-09T07:31:15;6.65;;;2.45;;
21122;SDS011;10719;48.130;11.630;2023-07-09T07:33:41;5.90;;;2.42;;
21122;SDS011;10719;48.130;11.630;2023-07-09T07:36:07;8.95;;;2.70;;
21122;SDS011;10719;48.130;11.630;2023-07-09T07:38:33;8.75;;;3.00;;
21122;SDS011;10719;48.130;11.630;2023-07-09T07:41:00;6.70;;;2.70;;
21122;SDS011;10719;48.130;11.630;2023-07-09T07:43:26;6.75;;;2.78;;
21122;SDS011;10719;48.130;11.630;2023-07-09T07:45:51;9.27;;;2.80;;
21122;SDS011;10719;48.130;11.630;2023-07-09T07:48:17;8.55;;;2.67;;
21122;SDS011;10719;48.130;11.630;2023-07-09T07:50:43;9.63;;;2.90;;
21122;SDS011;10719;48.130;11.630;2023-07-09T07:53:11;8.70;;;2.60;;
21122;SDS011;10719;48.130;11.630;2023-07-09T07:55:36;8.82;;;2.88;;
21122;SDS011;10719;48.130;11.630;2023-07-09T07:58:02;9.82;;;2.95;;
21122;SDS011;10719;48.130;11.630;2023-07-09T08:00:29;8.55;;;2.58;;
21122;SDS011;10719;48.130;11.630;2023-07-09T08:02:55;7.43;;;2.30;;
21122;SDS011;10719;48.130;11.630;2023-07-09T08:05:20;11.75;;;3.10;;
21122;SDS011;10719;48.130;11.630;2023-07-09T08:07:46;6.75;;;2.78;;
21122;SDS011;10719;48.130;11.630;2023-07-09T08:10:12;10.60;;;3.30;;
21122;SDS011;10719;48.130;11.630;2023-07-09T08:12:38;9.52;;;2.95;;
21122;SDS011;10719;48.130;11.630;2023-07-09T08:15:04;11.90;;;3.05;;
21122;SDS011;10719;48.130;11.630;2023-07-09T08:17:31;9.43;;;3.53;;
21122;SDS011;10719;48.130;11.630;2023-07-09T08:19:57;11.30;;;3.05;;
21122;SDS011;10719;48.130;11.630;2023-07-09T08:22:22;9.63;;;3.13;;
21122;SDS011;10719;48.130;11.630;2023-07-09T08:24:51;6.00;;;2.50;;
21122;SDS011;10719;48.130;11.630;2023-07-09T08:27:17;6.97;;;2.63;;
21122;SDS011;10719;48.130;11.630;2023-07-09T08:29:43;13.43;;;3.13;;
21122;SDS011;10719;48.130;11.630;2023-07-09T08:32:10;9.57;;;3.28;;
21122;SDS011;10719;48.130;11.630;2023-07-09T08:34:37;9.27;;;3.28;;
21122;SDS011;10719;48.130;11.630;2023-07-09T08:37:03;7.90;;;3.03;;
21122;SDS011;10719;48.130;11.630;2023-07-09T08:39:30;9.60;;;3.13;;
21122;SDS011;10719;48.130;11.630;2023-07-09T08:42:00;7.60;;;2.90;;
21122;SDS011;10719;48.130;11.630;2023-07-09T08:44:43;8.18;;;2.88;;
21122;SDS011;10719;48.130;11.630;2023-07-09T08:50:00;6.30;;;2.63;;
21122;SDS011;10719;48.130;11.630;2023-07-09T08:52:40;9.88;;;3.00;;
21122;SDS011;10719;48.130;11.630;2023-07-09T08:55:11;9.30;;;2.97;;
21122;SDS011;10719;48.130;11.630;2023-07-09T08:57:45;8.77;;;2.80;;
21122;SDS011;10719;48.130;11.630;2023-07-09T09:00:18;9.20;;;3.20;;
21122;SDS011;10719;48.130;11.630;2023-07-09T09:05:48;10.77;;;3.00;;
21122;SDS011;10719;48.130;11.630;2023-07-09T09:08:33;6.78;;;2.15;;
21122;SDS011;10719;48.130;11.630;2023-07-09T09:13:43;6.20;;;2.55;;
21122;SDS011;10719;48.130;11.630;2023-07-09T09:16:14;6.63;;;2.15;;
21122;SDS011;10719;48.130;11.630;2023-07-09T09:18:54;7.43;;;2.55;;
21122;SDS011;10719;48.130;11.630;2023-07-09T09:21:25;8.60;;;2.55;;
21122;SDS011;10719;48.130;11.630;2023-07-09T09:23:56;7.10;;;2.40;;
21122;SDS011;10719;48.130;11.630;2023-07-09T09:26:28;7.20;;;2.53;;
21122;SDS011;10719;48.130;11.630;2023-07-09T09:28:57;7.15;;;2.55;;
21122;SDS011;10719;48.130;11.630;2023-07-09T09:31:27;6.70;;;2.20;;
21122;SDS011;10719;48.130;11.630;2023-07-09T09:33:54;8.43;;;2.85;;
21122;SDS011;10719;48.130;11.630;2023-07-09T09:36:21;7.05;;;2.97;;
21122;SDS011;10719;48.130;11.630;2023-07-09T09:38:48;6.50;;;2.30;;
21122;SDS011;10719;48.130;11.630;2023-07-09T09:41:17;6.40;;;2.63;;
21122;SDS011;10719;48.130;11.630;2023-07-09T09:43:44;8.85;;;2.33;;
21122;SDS011;10719;48.130;11.630;2023-07-09T09:46:21;10.82;;;2.88;;
21122;SDS011;10719;48.130;11.630;2023-07-09T09:48:56;9.07;;;2.85;;
21122;SDS011;10719;48.130;11.630;2023-07-09T09:51:25;5.60;;;2.47;;
21122;SDS011;10719;48.130;11.630;2023-07-09T09:53:52;9.10;;;3.05;;
21122;SDS011;10719;48.130;11.630;2023-07-09T09:56:29;6.78;;;2.70;;
21122;SDS011;10719;48.130;11.630;2023-07-09T09:58:58;6.35;;;2.58;;
21122;SDS011;10719;48.130;11.630;2023-07-09T10:01:28;9.50;;;2.58;;
21122;SDS011;10719;48.130;11.630;2023-07-09T10:04:00;6.68;;;2.67;;
21122;SDS011;10719;48.130;11.630;2023-07-09T10:06:35;4.72;;;2.10;;
21122;SDS011;10719;48.130;11.630;2023-07-09T10:09:15;8.52;;;3.28;;
21122;SDS011;10719;48.130;11.630;2023-07-09T10:11:49;6.80;;;2.63;;
21122;SDS011;10719;48.130;11.630;2023-07-09T10:16:50;9.35;;;3.47;;
21122;SDS011;10719;48.130;11.630;2023-07-09T10:19:23;10.40;;;3.55;;
21122;SDS011;10719;48.130;11.630;2023-07-09T10:22:00;6.97;;;2.30;;
21122;SDS011;10719;48.130;11.630;2023-07-09T10:27:17;9.93;;;3.13;;
21122;SDS011;10719;48.130;11.630;2023-07-09T10:30:08;6.90;;;2.70;;
21122;SDS011;10719;48.130;11.630;2023-07-09T10:32:49;7.28;;;2.80;;
21122;SDS011;10719;48.130;11.630;2023-07-09T10:40:54;10.23;;;2.83;;
21122;SDS011;10719;48.130;11.630;2023-07-09T10:43:25;10.70;;;2.97;;
21122;SDS011;10719;48.130;11.630;2023-07-09T10:46:12;11.00;;;3.17;;
21122;SDS011;10719;48.130;11.630;2023-07-09T10:48:44;8.10;;;2.80;;
21122;SDS011;10719;48.130;11.630;2023-07-09T10:53:48;9.88;;;2.65;;
21122;SDS011;10719;48.130;11.630;2023-07-09T10:56:21;13.90;;;2.80;;
21122;SDS011;10719;48.130;11.630;2023-07-09T10:58:52;7.68;;;3.10;;
21122;SDS011;10719;48.130;11.630;2023-07-09T11:01:19;8.63;;;2.90;;
21122;SDS011;10719;48.130;11.630;2023-07-09T11:03:53;8.15;;;2.85;;
21122;SDS011;10719;48.130;11.630;2023-07-09T11:06:26;9.95;;;3.00;;
21122;SDS011;10719;48.130;11.630;2023-07-09T11:08:59;6.85;;;2.58;;
21122;SDS011;10719;48.130;11.630;2023-07-09T11:11:45;9.10;;;3.15;;
21122;SDS011;10719;48.130;11.630;2023-07-09T11:17:11;10.07;;;3.85;;
21122;SDS011;10719;48.130;11.630;2023-07-09T11:19:44;8.00;;;2.70;;
21122;SDS011;10719;48.130;11.630;2023-07-09T11:25:10;9.68;;;3.30;;
21122;SDS011;10719;48.130;11.630;2023-07-09T11:30:20;10.25;;;3.30;;
21122;SDS011;10719;48.130;11.630;2023-07-09T11:32:52;6.05;;;2.50;;
21122;SDS011;10719;48.130;11.630;2023-07-09T11:35:28;7.25;;;2.78;;
21122;SDS011;10719;48.130;11.630;2023-07-09T11:38:12;7.07;;;2.88;;
21122;SDS011;10719;48.130;11.630;2023-07-09T11:40:45;8.25;;;2.75;;
21122;SDS011;10719;48.130;11.630;2023-07-09T11:43:25;6.68;;;2.47;;
21122;SDS011;10719;48.130;11.630;2023-07-09T11:45:53;8.02;;;3.30;;
21122;SDS011;10719;48.130;11.630;2023-07-09T11:50:52;6.45;;;2.78;;
21122;SDS011;10719;48.130;11.630;2023-07-09T11:55:58;7.60;;;2.47;;
21122;SDS011;10719;48.130;11.630;2023-07-09T11:58:24;7.95;;;2.88;;
21122;SDS011;10719;48.130;11.630;2023-07-09T12:00:50;7.35;;;2.75;;
21122;SDS011;10719;48.130;11.630;2023-07-09T12:03:19;6.68;;;2.53;;
21122;SDS011;10719;48.130;11.630;2023-07-09T12:05:51;6.85;;;2.58;;
21122;SDS011;10719;48.130;11.630;2023-07-09T12:08:25;7.50;;;2.40;;
21122;SDS011;10719;48.130;11.630;2023-07-09T12:10:53;10.88;;;3.05;;
21122;SDS011;10719;48.130;11.630;2023-07-09T12:13:18;10.95;;;4.25;;
21122;SDS011;10719;48.130;11.630;2023-07-09T12:15:44;6.03;;;2.65;;
21122;SDS011;10719;48.130;11.630;2023-07-09T12:18:11;10.77;;;4.70;;
21122;SDS011;10719;48.130;11.630;2023-07-09T12:20:38;7.32;;;3.15;;
21122;SDS011;10719;48.130;11.630;2023-07-09T12:23:11;5.38;;;2.42;;
21122;SDS011;10719;48.130;11.630;2023-07-09T12:25:53;6.13;;;2.83;;
21122;SDS011;10719;48.130;11.630;2023-07-09T12:28:19;7.78;;;2.53;;
21122;SDS011;10719;48.130;11.630;2023-07-09T12:30:47;10.07;;;2.13;;
21122;SDS011;10719;48.130;11.630;2023-07-09T12:33:24;7.57;;;2.45;;
21122;SDS011;10719;48.130;11.630;2023-07-09T12:36:01;9.88;;;2.42;;
21122;SDS011;10719;48.130;11.630;2023-07-09T12:38:32;6.22;;;2.40;;
21122;SDS011;10719;48.130;11.630;2023-07-09T12:41:06;5.32;;;2.05;;
21122;SDS011;10719;48.130;11.630;2023-07-09T12:43:45;8.55;;;2.50;;
21122;SDS011;10719;48.130;11.630;2023-07-09T12:46:10;8.23;;;2.38;;
21122;SDS011;10719;48.130;11.630;2023-07-09T12:48:37;5.78;;;2.47;;
21122;SDS011;10719;48.130;11.630;2023-07-09T12:51:06;8.15;;;2.45;;
21122;SDS011;10719;48.130;11.630;2023-07-09T12:53:32;7.07;;;2.42;;
21122;SDS011;10719;48.130;11.630;2023-07-09T12:55:59;5.45;;;2.40;;
21122;SDS011;10719;48.130;11.630;2023-07-09T12:58:30;7.72;;;2.72;;
21122;SDS011;10719;48.130;11.630;2023-07-09T13:00:57;9.25;;;2.67;;
21122;SDS011;10719;48.130;11.630;2023-07-09T13:03:29;6.10;;;2.45;;
21122;SDS011;10719;48.130;11.630;2023-07-09T13:05:57;9.27;;;2.50;;
21122;SDS011;10719;48.130;11.630;2023-07-09T13:08:25;8.15;;;2.58;;
21122;SDS011;10719;48.130;11.630;2023-07-09T13:10:53;5.63;;;2.50;;
21122;SDS011;10719;48.130;11.630;2023-07-09T13:13:20;7.00;;;2.42;;
21122;SDS011;10719;48.130;11.630;2023-07-09T13:15:48;9.50;;;2.13;;
21122;SDS011;10719;48.130;11.630;2023-07-09T13:18:24;8.93;;;2.70;;
21122;SDS011;10719;48.130;11.630;2023-07-09T13:20:51;5.55;;;2.10;;
21122;SDS011;10719;48.130;11.630;2023-07-09T13:23:19;4.60;;;2.42;;
21122;SDS011;10719;48.130;11.630;2023-07-09T13:25:49;6.90;;;2.40;;
21122;SDS011;10719;48.130;11.630;2023-07-09T13:28:21;5.20;;;2.10;;
21122;SDS011;10719;48.130;11.630;2023-07-09T13:30:51;6.32;;;2.42;;
21122;SDS011;10719;48.130;11.630;2023-07-09T13:33:20;6.50;;;2.58;;
21122;SDS011;10719;48.130;11.630;2023-07-09T13:35:46;6.28;;;2.33;;
21122;SDS011;10719;48.130;11.630;2023-07-09T13:38:17;4.88;;;2.05;;
21122;SDS011;10719;48.130;11.630;2023-07-09T13:40:44;5.75;;;2.50;;
21122;SDS011;10719;48.130;11.630;2023-07-09T13:43:12;7.78;;;2.88;;
21122;SDS011;10719;48.130;11.630;2023-07-09T13:45:39;7.55;;;2.63;;
21122;SDS011;10719;48.130;11.630;2023-07-09T13:48:07;5.22;;;2.25;;
21122;SDS011;10719;48.130;11.630;2023-07-09T13:50:37;6.30;;;2.45;;
21122;SDS011;10719;48.130;11.630;2023-07-09T13:53:03;8.13;;;2.60;;
21122;SDS011;10719;48.130;11.630;2023-07-09T13:55:28;7.97;;;2.55;;
21122;SDS011;10719;48.130;11.630;2023-07-09T13:57:54;8.55;;;2.47;;
21122;SDS011;10719;48.130;11.630;2023-07-09T14:00:20;6.53;;;2.60;;
21122;SDS011;10719;48.130;11.630;2023-07-09T14:02:48;6.82;;;2.33;;
21122;SDS011;10719;48.130;11.630;2023-07-09T14:05:14;6.85;;;2.40;;
21122;SDS011;10719;48.130;11.630;2023-07-09T14:07:40;8.75;;;2.70;;
21122;SDS011;10719;48.130;11.630;2023-07-09T14:10:11;8.57;;;2.80;;
21122;SDS011;10719;48.130;11.630;2023-07-09T14:12:39;12.93;;;3.35;;
21122;SDS011;10719;48.130;11.630;2023-07-09T14:15:12;7.15;;;2.25;;
21122;SDS011;10719;48.130;11.630;2023-07-09T14:17:40;7.20;;;3.05;;
21122;SDS011;10719;48.130;11.630;2023-07-09T14:20:07;9.85;;;3.08;;
21122;SDS011;10719;48.130;11.630;2023-07-09T14:22:37;9.50;;;2.65;;
21122;SDS011;10719;48.130;11.630;2023-07-09T14:25:04;9.38;;;2.70;;
21122;SDS011;10719;48.130;11.630;2023-07-09T14:27:31;5.47;;;2.05;;
21122;SDS011;10719;48.130;11.630;2023-07-09T14:29:57;11.18;;;3.10;;
21122;SDS011;10719;48.130;11.630;2023-07-09T14:32:30;9.13;;;2.65;;
21122;SDS011;10719;48.130;11.630;2023-07-09T14:34:59;6.28;;;2.33;;
21122;SDS011;10719;48.130;11.630;2023-07-09T14:37:25;7.70;;;2.42;;
21122;SDS011;10719;48.130;11.630;2023-07-09T14:39:52;5.65;;;2.47;;
21122;SDS011;10719;48.130;11.630;2023-07-09T14:42:18;10.00;;;2.60;;
21122;SDS011;10719;48.130;11.630;2023-07-09T14:44:43;6.90;;;2.20;;
21122;SDS011;10719;48.130;11.630;2023-07-09T14:47:16;7.22;;;2.70;;
21122;SDS011;10719;48.130;11.630;2023-07-09T14:49:44;4.30;;;2.05;;
21122;SDS011;10719;48.130;11.630;2023-07-09T14:52:16;6.10;;;2.40;;
21122;SDS011;10719;48.130;11.630;2023-07-09T14:54:44;7.50;;;2.42;;
21122;SDS011;10719;48.130;11.630;2023-07-09T14:57:30;8.02;;;2.35;;
21122;SDS011;10719;48.130;11.630;2023-07-09T14:59:58;7.43;;;2.65;;
21122;SDS011;10719;48.130;11.630;2023-07-09T15:02:32;4.97;;;2.13;;
21122;SDS011;10719;48.130;11.630;2023-07-09T15:05:03;8.13;;;2.72;;
21122;SDS011;10719;48.130;11.630;2023-07-09T15:07:32;5.03;;;2.20;;
21122;SDS011;10719;48.130;11.630;2023-07-09T15:09:57;8.90;;;2.47;;
21122;SDS011;10719;48.130;11.630;2023-07-09T15:12:30;7.72;;;2.85;;
21122;SDS011;10719;48.130;11.630;2023-07-09T15:15:03;8.43;;;2.70;;